• Join FlightAware (Why Join?)
  • Login
  • US Flag 
07:49PM EDT


 

Airport Tracker/Info


-or-


 

Live Flight TrackerFlight Track Log ✈ ASQ5407 ✈ 30-Apr-2013 ✈ KATL - KAGS

Flight Track Log - Related Links

Times and Time Zones

All times are in EDT time to prevent confusion due to time zone crossing. See the ASQ5407 flight status page for this flight to view local times or setup timezone preferences in your user account.

Time Position Orientation Groundspeed Altitude Reporting Facility
EDT Latitude Longitude Course Direction KTS MPH feet Rate Location/Type
10:47PM 33.6333 -84.4000 90° East 149 171 2,400  Level Atlanta TRACON
10:48PM 33.6333 -84.3333 90° East 236 272 4,200 2,340 Climbing Atlanta TRACON
10:49PM 33.6333 -84.2500 90° East 267 307 7,100 2,280 Climbing Atlanta TRACON
10:50PM 33.6083 -84.0836 100° East 290 334 10,700 1,740 Climbing Atlanta Center
10:51PM 33.5939 -83.9714 99° East 315 362 12,100 1,560 Climbing Atlanta Center
10:53PM 33.5964 -83.8896 88° East  Level FlightAware Approximate
10:53PM 33.5600 -83.7297 88° East 367 422 15,500  Level Atlanta Center
10:54PM 33.5514 -83.6050 95° East 373 429 17,000 1,260 Climbing Atlanta Center
10:55PM 33.5403 -83.4781 96° East 378 435 18,100 960 Climbing Atlanta Center
10:56PM 33.5336 -83.3486 93° East 389 448 19,000 420 Climbing Atlanta Center
10:57PM 33.5264 -83.1942 93° East 405 466 19,000 -600 Level Atlanta Center
10:58PM 33.5189 -83.0522 94° East 422 486 17,800 -1,740 Descending Atlanta Center
10:59PM 33.5114 -82.9153 94° East 417 480 15,600 -2,280 Descending Atlanta Center
11:00PM 33.5061 -82.7806 93° East 412 474 13,300 -2,340 Descending Atlanta Center
11:01PM 33.4983 -82.6511 94° East 400 460 11,000 -1,740 Descending Atlanta Center
11:02PM 33.4908 -82.5417 95° East 365 420 9,900 -1,380 Descending Atlanta Center
11:03PM 33.4853 -82.4447 94° East 322 371 8,300 -1,620 Descending Atlanta Center
11:04PM 33.4822 -82.3553 92° East 289 333 6,700 -1,740 Descending Atlanta Center
11:05PM 33.4767 -82.2656 94° East 270 311 4,900 -1,860 Descending Atlanta Center
11:06PM 33.4733 -82.1811 93° East 258 297 3,000 -1,560 Descending Atlanta Center
11:07PM 33.4681 -82.1039 95° East 245 282 1,800 -600 Descending Atlanta Center
11:08PM 33.4650 -82.0467 94° East 209 241 1,800  Level Atlanta Center
11:09PM 33.4617 -81.9794 93° East 199 229 1,800  Level Atlanta Center